createdAt,value
2022-10-24T00:01:15.764Z,15.10
2022-10-24T00:03:43.869Z,15.00
2022-10-24T00:06:13.512Z,14.90
2022-10-24T00:08:42.423Z,14.90
2022-10-24T00:11:12.631Z,14.90
2022-10-24T00:13:41.301Z,14.90
2022-10-24T00:16:09.841Z,15.00
2022-10-24T00:18:39.194Z,15.00
2022-10-24T00:21:08.114Z,15.00
2022-10-24T00:23:36.344Z,15.10
2022-10-24T00:26:05.784Z,15.10
2022-10-24T00:28:36.308Z,15.10
2022-10-24T00:31:04.798Z,15.10
2022-10-24T00:33:32.902Z,15.10
2022-10-24T00:36:02.279Z,15.10
2022-10-24T00:38:30.278Z,15.10
2022-10-24T00:40:58.297Z,15.10
2022-10-24T00:43:27.521Z,15.10
2022-10-24T00:45:56.751Z,15.20
2022-10-24T00:48:28.764Z,15.20
2022-10-24T00:50:59.949Z,15.20
2022-10-24T00:53:30.758Z,15.20
2022-10-24T00:56:02.123Z,15.10
2022-10-24T00:58:32.656Z,14.90
2022-10-24T01:01:01.456Z,14.80
2022-10-24T01:03:29.713Z,14.80
2022-10-24T01:06:24.004Z,14.70
2022-10-24T01:09:04.387Z,14.80
2022-10-24T01:11:44.233Z,14.80
2022-10-24T01:14:24.348Z,14.80
2022-10-24T01:16:56.611Z,14.90
2022-10-24T01:19:51.983Z,14.90
2022-10-24T01:22:24.227Z,15.00
2022-10-24T01:25:06.901Z,15.00
2022-10-24T01:27:58.879Z,15.10
2022-10-24T01:30:30.344Z,15.10
2022-10-24T01:33:03.188Z,15.10
2022-10-24T01:35:40.339Z,15.10
2022-10-24T01:38:17.496Z,15.10
2022-10-24T01:40:51.600Z,15.10
2022-10-24T01:43:23.424Z,15.20
2022-10-24T01:45:58.434Z,15.30
2022-10-24T01:48:29.725Z,15.40
2022-10-24T01:51:00.998Z,15.50
2022-10-24T01:53:31.092Z,15.60
2022-10-24T01:55:59.737Z,15.60
2022-10-24T01:58:27.797Z,15.70
2022-10-24T02:01:02.526Z,15.80
2022-10-24T02:03:35.188Z,15.90
2022-10-24T02:06:09.144Z,15.90
2022-10-24T02:08:41.275Z,16.00
2022-10-24T02:11:11.397Z,16.00
2022-10-24T02:13:46.633Z,15.90
2022-10-24T02:16:18.626Z,16.00
2022-10-24T02:18:47.879Z,16.00
2022-10-24T02:21:25.505Z,16.00
2022-10-24T02:23:56.666Z,16.00
2022-10-24T02:26:32.265Z,16.00
2022-10-24T02:29:03.016Z,16.00
2022-10-24T02:31:35.895Z,15.90
2022-10-24T02:34:07.075Z,15.90
2022-10-24T02:36:37.348Z,15.80
2022-10-24T02:39:07.851Z,15.70
2022-10-24T02:41:38.673Z,15.50
2022-10-24T02:44:08.205Z,15.40
2022-10-24T02:46:38.419Z,15.20
2022-10-24T02:49:07.031Z,15.10
2022-10-24T02:51:39.120Z,15.00
2022-10-24T02:54:07.214Z,14.90
2022-10-24T02:56:37.230Z,14.80
2022-10-24T02:59:05.244Z,14.80
2022-10-24T03:01:33.326Z,14.80
2022-10-24T03:04:02.667Z,14.80
2022-10-24T03:06:30.730Z,14.80
2022-10-24T03:08:58.724Z,14.80
2022-10-24T03:11:26.673Z,14.60
2022-10-24T03:13:54.649Z,14.90
2022-10-24T03:16:22.742Z,14.80
2022-10-24T03:18:50.743Z,14.80
2022-10-24T03:21:20.094Z,14.80
2022-10-24T03:23:48.109Z,15.00
2022-10-24T03:26:16.259Z,14.90
2022-10-24T03:28:44.223Z,15.00
2022-10-24T03:31:13.941Z,15.00
2022-10-24T03:33:41.941Z,15.00
2022-10-24T03:36:10.358Z,15.00
2022-10-24T03:38:39.714Z,15.10
2022-10-24T03:41:07.864Z,15.10
2022-10-24T03:43:35.879Z,15.20
2022-10-24T03:46:03.885Z,15.20
2022-10-24T03:48:31.854Z,15.20
2022-10-24T03:51:02.808Z,15.30
2022-10-24T03:53:30.998Z,15.30
2022-10-24T03:56:00.475Z,15.30
2022-10-24T03:58:28.590Z,15.40
2022-10-24T04:00:58.527Z,15.40
2022-10-24T04:03:26.700Z,15.40
2022-10-24T04:05:55.330Z,15.40
2022-10-24T04:08:23.622Z,15.40
2022-10-24T04:10:51.603Z,15.40
2022-10-24T04:13:22.308Z,15.50
2022-10-24T04:15:50.261Z,15.50
2022-10-24T04:18:18.196Z,15.50
2022-10-24T04:20:46.512Z,15.40
2022-10-24T04:23:14.554Z,15.40
2022-10-24T04:25:42.553Z,15.40
2022-10-24T04:28:10.586Z,15.40
2022-10-24T04:30:40.000Z,15.40
2022-10-24T04:33:08.013Z,15.40
2022-10-24T04:35:35.991Z,15.30
2022-10-24T04:38:03.952Z,15.30
2022-10-24T04:40:31.893Z,15.30
2022-10-24T04:42:59.850Z,15.20
2022-10-24T04:45:27.833Z,15.20
2022-10-24T04:47:57.190Z,15.20
2022-10-24T04:50:25.242Z,15.10
2022-10-24T04:52:53.299Z,15.00
2022-10-24T04:55:21.277Z,15.00
2022-10-24T04:57:49.374Z,15.30
2022-10-24T05:00:18.105Z,15.00
2022-10-24T05:02:46.264Z,15.00
2022-10-24T05:05:17.173Z,15.00
2022-10-24T05:07:46.165Z,15.10
2022-10-24T05:10:15.682Z,15.10
2022-10-24T05:12:44.452Z,15.20
2022-10-24T05:15:14.335Z,15.20
2022-10-24T05:17:42.579Z,15.30
2022-10-24T05:20:11.565Z,15.20
2022-10-24T05:22:41.216Z,15.30
2022-10-24T05:25:09.551Z,15.30
2022-10-24T05:27:37.546Z,15.40
2022-10-24T05:30:06.890Z,15.40
2022-10-24T05:32:37.316Z,15.50
2022-10-24T05:35:09.127Z,15.60
2022-10-24T05:37:37.191Z,15.60
2022-10-24T05:40:08.073Z,15.70
2022-10-24T05:42:36.676Z,15.70
2022-10-24T05:45:05.308Z,15.70
2022-10-24T05:47:33.393Z,15.80
2022-10-24T05:50:01.407Z,15.80
2022-10-24T05:52:29.507Z,15.80
2022-10-24T05:55:07.023Z,15.90
2022-10-24T05:57:37.814Z,15.90
2022-10-24T06:00:07.573Z,16.00
2022-10-24T06:02:35.569Z,16.00
2022-10-24T06:05:03.799Z,16.00
2022-10-24T06:07:31.818Z,16.00
2022-10-24T06:09:59.968Z,16.00
2022-10-24T06:12:28.226Z,16.00
2022-10-24T06:14:59.137Z,16.00
2022-10-24T06:17:27.384Z,16.00
2022-10-24T06:19:55.399Z,16.00
2022-10-24T06:22:25.236Z,16.00
2022-10-24T06:24:53.228Z,16.00
2022-10-24T06:27:21.329Z,16.00
2022-10-24T06:29:49.378Z,16.10
2022-10-24T06:32:19.339Z,16.10
2022-10-24T06:34:47.515Z,16.10
2022-10-24T06:37:15.535Z,16.10
2022-10-24T06:39:43.644Z,16.10
2022-10-24T06:42:11.721Z,16.20
2022-10-24T06:44:39.706Z,16.10
2022-10-24T06:47:08.117Z,16.10
2022-10-24T06:49:37.633Z,16.10
2022-10-24T06:52:06.117Z,16.10
2022-10-24T06:54:35.374Z,16.10
2022-10-24T06:57:03.391Z,16.10
2022-10-24T06:59:32.019Z,16.10
2022-10-24T07:02:03.262Z,16.10
2022-10-24T07:04:33.891Z,16.20
2022-10-24T07:07:03.413Z,16.20
2022-10-24T07:09:31.403Z,16.20
2022-10-24T07:11:59.461Z,16.20
2022-10-24T07:14:28.328Z,16.30
2022-10-24T07:16:56.287Z,16.30
2022-10-24T07:19:24.248Z,16.30
2022-10-24T07:21:52.527Z,16.30
2022-10-24T07:24:22.641Z,16.30
2022-10-24T07:26:50.665Z,16.40
2022-10-24T07:29:18.612Z,16.40
2022-10-24T07:31:48.043Z,16.40
2022-10-24T07:34:16.362Z,16.50
2022-10-24T07:36:44.378Z,16.60
2022-10-24T07:39:13.234Z,16.70
2022-10-24T07:41:43.252Z,16.80
2022-10-24T07:44:12.105Z,16.90
2022-10-24T07:46:42.414Z,17.00
2022-10-24T07:49:11.001Z,17.10
2022-10-24T07:51:39.139Z,17.20
2022-10-24T07:54:07.524Z,17.20
2022-10-24T07:56:35.736Z,17.20
2022-10-24T07:59:09.472Z,17.20
2022-10-24T08:01:41.787Z,17.20
2022-10-24T08:04:10.711Z,17.20
2022-10-24T08:06:38.730Z,17.10
2022-10-24T08:09:06.792Z,17.10
2022-10-24T08:11:34.829Z,17.00
2022-10-24T08:14:04.350Z,17.00
2022-10-24T08:16:32.359Z,17.40
2022-10-24T08:19:00.491Z,17.90
2022-10-24T08:21:28.615Z,18.30
2022-10-24T08:23:57.098Z,18.50
2022-10-24T08:26:26.602Z,18.60
2022-10-24T08:28:56.120Z,18.60
2022-10-24T08:31:26.877Z,18.60
2022-10-24T08:33:56.807Z,18.80
2022-10-24T08:36:27.027Z,18.90
2022-10-24T08:38:55.352Z,19.00
2022-10-24T08:41:31.955Z,18.90
2022-10-24T08:44:03.320Z,18.70
2022-10-24T08:46:49.026Z,18.50
2022-10-24T08:49:24.959Z,18.50
2022-10-24T08:51:57.620Z,18.80
2022-10-24T08:54:31.637Z,19.20
2022-10-24T08:57:02.715Z,19.90
2022-10-24T08:59:34.240Z,20.70
2022-10-24T09:02:08.958Z,21.10
2022-10-24T09:04:45.192Z,21.40
2022-10-24T09:07:19.724Z,21.30
2022-10-24T09:09:51.200Z,20.90
2022-10-24T09:12:21.771Z,20.90
2022-10-24T09:14:56.737Z,20.90
2022-10-24T09:17:31.672Z,20.80
2022-10-24T09:20:02.405Z,20.50
2022-10-24T09:22:37.478Z,20.20
2022-10-24T09:25:09.431Z,20.00
2022-10-24T09:27:40.256Z,19.80
2022-10-24T09:30:16.482Z,19.50
2022-10-24T09:32:45.885Z,19.50
2022-10-24T09:35:20.104Z,19.50
2022-10-24T09:37:50.717Z,19.70
2022-10-24T09:40:22.199Z,19.60
2022-10-24T09:42:55.196Z,19.50
2022-10-24T09:45:47.782Z,19.30
2022-10-24T09:48:30.317Z,19.20
2022-10-24T09:51:00.186Z,19.50
2022-10-24T09:53:31.471Z,20.10
2022-10-24T09:56:01.405Z,20.30
2022-10-24T09:58:32.827Z,20.60
2022-10-24T10:01:05.404Z,20.90
2022-10-24T10:03:35.988Z,20.80
2022-10-24T10:06:09.568Z,21.10
2022-10-24T10:08:38.666Z,20.80
2022-10-24T10:11:09.110Z,20.40
2022-10-24T10:13:45.636Z,20.10
2022-10-24T10:16:23.570Z,20.20
2022-10-24T10:19:02.382Z,19.90
2022-10-24T10:21:55.646Z,19.70
2022-10-24T10:24:29.360Z,19.30
2022-10-24T10:26:57.626Z,19.10
2022-10-24T10:29:25.711Z,18.90
2022-10-24T10:32:01.155Z,18.90
2022-10-24T10:34:38.209Z,18.80
2022-10-24T10:37:35.816Z,18.70
2022-10-24T10:40:25.666Z,18.90
2022-10-24T10:43:06.965Z,18.50
2022-10-24T10:45:37.868Z,18.30
2022-10-24T10:48:32.927Z,18.20
2022-10-24T10:51:08.180Z,18.00
2022-10-24T10:53:42.796Z,18.00
2022-10-24T10:56:26.103Z,17.90
2022-10-24T10:59:09.055Z,17.90
2022-10-24T11:01:49.226Z,17.80
2022-10-24T11:04:26.928Z,17.70
2022-10-24T11:07:03.833Z,17.70
2022-10-24T11:09:38.393Z,17.70
2022-10-24T11:12:13.265Z,17.70
2022-10-24T11:14:46.521Z,17.60
2022-10-24T11:17:19.194Z,17.70
2022-10-24T11:20:04.168Z,17.70
2022-10-24T11:22:39.762Z,17.80
2022-10-24T11:25:21.877Z,17.80
2022-10-24T11:27:56.212Z,17.80
2022-10-24T11:30:42.310Z,17.80
2022-10-24T11:33:16.439Z,17.70
2022-10-24T11:36:00.442Z,17.80
2022-10-24T11:38:30.170Z,17.80
2022-10-24T11:41:20.920Z,18.10
2022-10-24T11:43:50.285Z,17.80
2022-10-24T11:46:23.162Z,17.70
2022-10-24T11:48:56.018Z,17.70
2022-10-24T11:51:29.580Z,17.60
2022-10-24T11:54:00.803Z,17.50
2022-10-24T11:56:35.322Z,17.50
2022-10-24T11:59:05.700Z,17.40
2022-10-24T12:01:52.197Z,17.40
2022-10-24T12:04:40.231Z,17.40
2022-10-24T12:07:41.011Z,17.40
2022-10-24T12:10:30.540Z,17.40
2022-10-24T12:13:27.293Z,17.30
2022-10-24T12:16:03.477Z,17.30
2022-10-24T12:18:35.484Z,17.40
2022-10-24T12:21:06.188Z,17.30
2022-10-24T12:23:34.763Z,17.30
2022-10-24T12:26:05.246Z,17.30
2022-10-24T12:28:35.811Z,17.30
2022-10-24T12:31:14.027Z,17.30
2022-10-24T12:33:42.931Z,17.30
2022-10-24T12:36:11.334Z,17.40
2022-10-24T12:39:10.128Z,17.50
2022-10-24T12:41:47.078Z,17.60
2022-10-24T12:44:54.157Z,17.60
2022-10-24T12:47:44.755Z,17.60
2022-10-24T12:50:49.906Z,17.60
2022-10-24T12:53:30.552Z,17.60
2022-10-24T12:59:05.785Z,17.60
2022-10-24T13:01:35.794Z,17.70
2022-10-24T13:07:35.932Z,17.60
2022-10-24T13:10:25.909Z,17.60
2022-10-24T13:13:10.784Z,17.70
2022-10-24T13:15:47.426Z,17.70
2022-10-24T13:18:24.179Z,17.70
2022-10-24T13:21:15.130Z,17.70
2022-10-24T13:23:45.742Z,17.80
2022-10-24T13:26:37.182Z,17.90
2022-10-24T13:29:05.899Z,17.90
2022-10-24T13:31:43.901Z,18.00
2022-10-24T13:34:26.565Z,18.10
2022-10-24T13:37:07.257Z,18.20
2022-10-24T13:39:40.436Z,18.20
2022-10-24T13:42:22.363Z,18.30
2022-10-24T13:44:53.063Z,18.30
2022-10-24T13:47:25.438Z,18.30
2022-10-24T13:49:57.006Z,18.30
2022-10-24T13:52:33.644Z,18.30
2022-10-24T13:55:06.509Z,18.30
2022-10-24T13:57:37.533Z,18.20
2022-10-24T14:00:09.821Z,18.20
2022-10-24T14:02:42.452Z,18.10
2022-10-24T14:05:21.715Z,18.00
2022-10-24T14:07:51.539Z,18.00
2022-10-24T14:10:21.919Z,17.90
2022-10-24T14:12:52.068Z,17.70
2022-10-24T14:15:22.508Z,17.60
2022-10-24T14:17:59.358Z,17.50
2022-10-24T14:20:30.608Z,17.20
2022-10-24T14:23:00.062Z,17.00
2022-10-24T14:25:38.916Z,16.90
2022-10-24T14:28:15.496Z,16.70
2022-10-24T14:30:54.068Z,16.50
2022-10-24T14:33:25.972Z,16.40
2022-10-24T14:35:57.861Z,16.30
2022-10-24T14:38:29.281Z,16.20
2022-10-24T14:41:08.361Z,16.00
2022-10-24T14:43:42.041Z,16.00
2022-10-24T14:46:31.737Z,15.90
2022-10-24T14:49:20.709Z,15.90
2022-10-24T14:54:23.254Z,15.80
2022-10-24T14:56:54.506Z,15.80
2022-10-24T14:59:26.111Z,15.70
2022-10-24T15:01:56.593Z,15.70
2022-10-24T15:04:37.182Z,15.70
2022-10-24T15:07:16.398Z,15.70
2022-10-24T15:09:56.391Z,15.70
2022-10-24T15:12:32.490Z,15.70
2022-10-24T15:15:22.800Z,15.70
2022-10-24T15:17:52.144Z,15.80
2022-10-24T15:20:22.741Z,15.90
2022-10-24T15:22:53.040Z,15.90
2022-10-24T15:25:25.865Z,15.90
2022-10-24T15:27:59.323Z,16.00
2022-10-24T15:30:29.478Z,16.00
2022-10-24T15:32:59.724Z,16.00
2022-10-24T15:35:28.863Z,16.00
2022-10-24T15:37:59.635Z,15.80
2022-10-24T15:40:31.368Z,15.90
2022-10-24T15:42:59.529Z,15.90
2022-10-24T15:45:27.903Z,15.90
2022-10-24T15:47:56.078Z,15.90
2022-10-24T15:50:25.271Z,15.80
2022-10-24T15:52:55.888Z,15.80
2022-10-24T15:55:26.792Z,15.80
2022-10-24T15:57:59.759Z,15.80
2022-10-24T16:00:27.977Z,15.80
2022-10-24T16:03:00.695Z,15.80
2022-10-24T16:05:35.793Z,15.70
2022-10-24T16:08:04.037Z,15.80
2022-10-24T16:10:32.320Z,15.70
2022-10-24T16:13:01.813Z,15.70
2022-10-24T16:15:33.844Z,15.70
2022-10-24T16:18:02.288Z,15.80
2022-10-24T16:20:30.918Z,15.70
2022-10-24T16:22:58.992Z,15.70
2022-10-24T16:25:29.402Z,15.70
2022-10-24T16:27:57.949Z,15.60
2022-10-24T16:30:30.482Z,15.60
2022-10-24T16:32:58.743Z,15.50
2022-10-24T16:35:29.061Z,15.50
2022-10-24T16:37:58.430Z,15.40
2022-10-24T16:40:28.183Z,15.30
2022-10-24T16:42:57.942Z,15.30
2022-10-24T16:45:27.799Z,15.30
2022-10-24T16:47:55.882Z,15.40
2022-10-24T16:50:26.155Z,15.40
2022-10-24T16:52:54.895Z,15.40
2022-10-24T16:55:24.149Z,15.50
2022-10-24T16:57:52.331Z,15.50
2022-10-24T17:00:22.537Z,15.60
2022-10-24T17:02:54.635Z,15.60
2022-10-24T17:05:25.189Z,15.60
2022-10-24T17:07:53.608Z,15.60
2022-10-24T17:10:24.592Z,15.60
2022-10-24T17:19:05.017Z,15.50
2022-10-24T17:21:37.128Z,15.40
2022-10-24T17:24:05.750Z,15.30
2022-10-24T17:26:34.056Z,15.20
2022-10-24T17:29:02.736Z,15.10
2022-10-24T17:31:31.110Z,15.10
2022-10-24T17:34:01.147Z,15.00
2022-10-24T17:36:34.490Z,14.80
2022-10-24T17:39:10.164Z,14.80
2022-10-24T17:41:40.872Z,14.70
2022-10-24T17:44:13.593Z,14.60
2022-10-24T17:46:41.955Z,14.50
2022-10-24T17:49:16.485Z,14.40
2022-10-24T17:51:48.075Z,14.40
2022-10-24T17:54:16.780Z,14.40
2022-10-24T17:56:45.327Z,14.40
2022-10-24T17:59:13.450Z,14.40
2022-10-24T18:01:41.895Z,14.30
2022-10-24T18:04:12.227Z,14.30
2022-10-24T18:06:42.192Z,14.30
2022-10-24T18:09:12.506Z,14.30
2022-10-24T18:11:40.826Z,14.30
2022-10-24T18:14:09.433Z,14.20
2022-10-24T18:16:39.442Z,14.20
2022-10-24T18:19:08.413Z,14.20
2022-10-24T18:21:38.032Z,14.10
2022-10-24T18:24:08.713Z,14.10
2022-10-24T18:26:36.865Z,14.00
2022-10-24T18:29:05.290Z,14.00
2022-10-24T18:31:34.122Z,14.00
2022-10-24T18:34:06.232Z,13.90
2022-10-24T18:36:40.654Z,13.90
2022-10-24T18:39:08.774Z,13.80
2022-10-24T18:41:44.059Z,13.70
2022-10-24T18:44:26.375Z,13.70
2022-10-24T18:46:56.236Z,13.60
2022-10-24T18:49:25.407Z,13.50
2022-10-24T18:52:05.034Z,13.30
2022-10-24T18:54:38.270Z,13.20
2022-10-24T18:57:19.903Z,13.20
2022-10-24T18:59:48.336Z,13.10
2022-10-24T19:02:26.291Z,13.10
2022-10-24T19:05:02.691Z,13.00
2022-10-24T19:07:32.564Z,12.90
2022-10-24T19:10:01.168Z,12.90
2022-10-24T19:12:29.534Z,12.90
2022-10-24T19:14:57.905Z,12.90
2022-10-24T19:17:26.212Z,12.80
2022-10-24T19:19:57.292Z,12.80
2022-10-24T19:22:26.502Z,12.80
2022-10-24T19:24:57.918Z,12.80
2022-10-24T19:27:26.135Z,12.80
2022-10-24T19:29:54.355Z,12.80
2022-10-24T19:32:22.384Z,12.80
2022-10-24T19:34:51.242Z,12.60
2022-10-24T19:37:19.483Z,12.80
2022-10-24T19:39:47.608Z,12.80
2022-10-24T19:42:17.154Z,12.80
2022-10-24T19:47:16.858Z,12.90
2022-10-24T19:49:44.833Z,12.90
2022-10-24T19:52:12.904Z,13.00
2022-10-24T19:54:40.947Z,13.00
2022-10-24T19:57:09.222Z,13.10
2022-10-24T19:59:38.792Z,13.10
2022-10-24T20:02:06.884Z,13.20
2022-10-24T20:04:38.905Z,13.20
2022-10-24T20:07:08.363Z,13.20
2022-10-24T20:09:37.122Z,13.20
2022-10-24T20:12:05.898Z,13.30
2022-10-24T20:14:33.999Z,13.30
2022-10-24T20:17:03.437Z,13.20
2022-10-24T20:19:31.480Z,13.20
2022-10-24T20:22:02.308Z,13.20
2022-10-24T20:24:30.823Z,13.20
2022-10-24T20:26:58.898Z,13.10
2022-10-24T20:29:27.212Z,13.10
2022-10-24T20:31:55.240Z,13.00
2022-10-24T20:34:24.762Z,13.00
2022-10-24T20:36:52.822Z,13.00
2022-10-24T20:39:21.420Z,13.00
2022-10-24T20:41:51.900Z,13.00
2022-10-24T20:44:22.648Z,13.00
2022-10-24T20:46:50.808Z,13.00
2022-10-24T20:49:18.856Z,12.90
2022-10-24T20:51:48.478Z,12.90
2022-10-24T20:54:16.559Z,12.90
2022-10-24T20:56:44.600Z,12.90
2022-10-24T20:59:13.755Z,12.90
2022-10-24T21:01:42.150Z,12.80
2022-10-24T21:04:10.297Z,12.80
2022-10-24T21:06:38.469Z,12.80
2022-10-24T21:09:08.262Z,12.70
2022-10-24T21:11:36.857Z,12.70
2022-10-24T21:14:06.585Z,12.70
2022-10-24T21:16:35.311Z,12.70
2022-10-24T21:19:03.758Z,12.60
2022-10-24T21:21:32.080Z,12.60
2022-10-24T21:24:05.654Z,12.60
2022-10-24T21:26:38.312Z,12.60
2022-10-24T21:29:14.875Z,12.60
2022-10-24T21:31:55.803Z,12.50
2022-10-24T21:34:25.231Z,12.50
2022-10-24T21:36:54.803Z,12.50
2022-10-24T21:39:22.853Z,12.50
2022-10-24T21:41:52.273Z,12.50
2022-10-24T21:44:23.270Z,12.50
2022-10-24T21:46:54.433Z,12.50
2022-10-24T21:49:22.432Z,12.50
2022-10-24T21:51:50.981Z,12.50
2022-10-24T21:54:20.937Z,12.50
2022-10-24T21:56:49.349Z,12.50
2022-10-24T21:59:20.856Z,12.40
2022-10-24T22:01:50.472Z,12.40
2022-10-24T22:04:19.107Z,12.40
2022-10-24T22:06:47.758Z,12.40
2022-10-24T22:09:17.908Z,12.40
2022-10-24T22:11:46.398Z,12.40
2022-10-24T22:14:15.940Z,12.50
2022-10-24T22:16:45.819Z,12.50
2022-10-24T22:19:14.640Z,12.50
2022-10-24T22:21:44.550Z,12.60
2022-10-24T22:24:14.728Z,12.60
2022-10-24T22:26:42.968Z,12.60
2022-10-24T22:29:13.886Z,12.70
2022-10-24T22:31:42.568Z,12.70
2022-10-24T22:34:17.380Z,12.70
2022-10-24T22:36:58.719Z,12.70
2022-10-24T22:39:27.989Z,12.60
2022-10-24T22:41:56.736Z,12.70
2022-10-24T22:44:25.235Z,12.60
2022-10-24T22:47:30.549Z,12.60
2022-10-24T22:50:07.640Z,12.60
2022-10-24T22:52:36.155Z,12.60
2022-10-24T22:55:05.783Z,12.60
2022-10-24T22:57:36.864Z,12.60
2022-10-24T23:00:05.800Z,12.60
2022-10-24T23:02:36.731Z,12.60
2022-10-24T23:05:11.185Z,12.60
2022-10-24T23:07:48.771Z,12.60
2022-10-24T23:10:21.292Z,12.60
2022-10-24T23:12:50.835Z,12.60
2022-10-24T23:15:21.600Z,12.60
2022-10-24T23:17:50.484Z,12.60
2022-10-24T23:20:28.139Z,12.60
2022-10-24T23:23:09.458Z,12.70
2022-10-24T23:25:51.508Z,12.60
2022-10-24T23:28:25.350Z,12.60
2022-10-24T23:30:53.979Z,12.70
2022-10-24T23:33:27.327Z,12.70
2022-10-24T23:36:00.269Z,12.70
2022-10-24T23:38:29.138Z,12.70
2022-10-24T23:40:57.889Z,12.70
2022-10-24T23:43:26.453Z,12.80
2022-10-24T23:46:01.489Z,12.70
2022-10-24T23:48:45.072Z,12.80
2022-10-24T23:51:18.599Z,12.80
2022-10-24T23:53:52.826Z,12.80
2022-10-24T23:56:22.676Z,12.80
2022-10-24T23:58:51.262Z,12.90
